Time;durP1;ratioP1;P1;durP2;ratioP2;P2;SDS_P1;SDS_P2;PMS_P1;PMS_P2;Temp;Humidity;BMP_temperature;BMP_pressure;BME280_temperature;BME280_humidity;BME280_pressure;Samples;Min_cycle;Max_cycle;Signal;HPM_P1;HPM_P2
2023/12/23 00:01:15;;;;;;;4.93;0.80;;;;;;;;;;5047902;28;20713;-71
2023/12/23 00:03:41;;;;;;;2.10;0.85;;;;;;;;;;5048333;28;20643;-70
2023/12/23 00:06:10;;;;;;;3.33;1.00;;;;;;;;;;5049323;28;20229;-70
2023/12/23 00:08:36;;;;;;;2.10;0.70;;;;;;;;;;5047735;28;20217;-70
2023/12/23 00:11:02;;;;;;;2.40;0.88;;;;;;;;;;5049995;28;20472;-70
2023/12/23 00:13:29;;;;;;;2.47;0.80;;;;;;;;;;5048212;28;20213;-70
2023/12/23 00:15:55;;;;;;;2.92;0.90;;;;;;;;;;5048005;28;20225;-70
2023/12/23 00:18:21;;;;;;;1.95;0.70;;;;;;;;;;5047925;28;20470;-70
2023/12/23 00:20:48;;;;;;;5.60;0.90;;;;;;;;;;5047659;28;20295;-70
2023/12/23 00:23:15;;;;;;;3.88;1.20;;;;;;;;;;5047691;28;20340;-70
2023/12/23 00:25:41;;;;;;;3.20;1.10;;;;;;;;;;5047707;28;20225;-70
2023/12/23 00:28:08;;;;;;;1.88;0.95;;;;;;;;;;5048005;28;20205;-70
2023/12/23 00:30:35;;;;;;;1.33;0.65;;;;;;;;;;5047933;28;20255;-70
2023/12/23 00:33:02;;;;;;;1.42;0.80;;;;;;;;;;5047828;28;21185;-70
2023/12/23 00:35:28;;;;;;;2.35;0.63;;;;;;;;;;5047173;28;20588;-70
2023/12/23 00:37:55;;;;;;;2.67;0.75;;;;;;;;;;5052829;28;20755;-70
2023/12/23 00:40:22;;;;;;;1.00;0.60;;;;;;;;;;5049262;28;20761;-70
2023/12/23 00:42:48;;;;;;;1.67;0.88;;;;;;;;;;5047482;28;20259;-70
2023/12/23 00:45:15;;;;;;;4.82;1.15;;;;;;;;;;5047517;28;20229;-70
2023/12/23 00:47:41;;;;;;;2.30;0.77;;;;;;;;;;5047599;28;20205;-70
2023/12/23 00:50:08;;;;;;;1.75;1.20;;;;;;;;;;5047153;28;20208;-70
2023/12/23 00:52:34;;;;;;;1.02;0.77;;;;;;;;;;5045948;28;20220;-70
2023/12/23 00:55:02;;;;;;;4.70;1.15;;;;;;;;;;5047072;28;20224;-70
2023/12/23 00:57:30;;;;;;;2.60;0.93;;;;;;;;;;5047218;28;20209;-70
2023/12/23 00:59:56;;;;;;;2.38;0.80;;;;;;;;;;5047697;28;20613;-70
2023/12/23 01:02:22;;;;;;;3.22;1.02;;;;;;;;;;5047164;28;20229;-70
2023/12/23 01:04:49;;;;;;;2.42;0.80;;;;;;;;;;5046854;28;20647;-70
2023/12/23 01:07:15;;;;;;;2.25;0.85;;;;;;;;;;5053555;28;20267;-70
2023/12/23 01:09:41;;;;;;;4.05;0.75;;;;;;;;;;5054652;28;20212;-70
2023/12/23 01:12:08;;;;;;;1.60;0.60;;;;;;;;;;5055720;28;20263;-70
2023/12/23 01:14:35;;;;;;;3.85;0.70;;;;;;;;;;5053427;28;20217;-71
2023/12/23 01:17:01;;;;;;;3.70;0.75;;;;;;;;;;5051547;28;20209;-71
2023/12/23 01:19:28;;;;;;;2.33;1.00;;;;;;;;;;5048675;28;20255;-71
2023/12/23 01:21:54;;;;;;;2.00;0.70;;;;;;;;;;5046765;28;20217;-71
2023/12/23 01:24:20;;;;;;;4.13;0.73;;;;;;;;;;5046249;28;20263;-70
2023/12/23 01:26:46;;;;;;;5.50;0.75;;;;;;;;;;5046547;28;20224;-70
2023/12/23 01:29:13;;;;;;;1.60;0.65;;;;;;;;;;5046609;28;20217;-70
2023/12/23 01:31:40;;;;;;;0.82;0.50;;;;;;;;;;5046491;28;20205;-71
2023/12/23 01:34:06;;;;;;;1.33;0.68;;;;;;;;;;5046310;28;20209;-70
2023/12/23 01:36:33;;;;;;;2.50;0.60;;;;;;;;;;5046208;28;20221;-70
2023/12/23 01:38:59;;;;;;;2.83;0.70;;;;;;;;;;5046638;28;20213;-70
2023/12/23 01:41:24;;;;;;;4.05;0.50;;;;;;;;;;5046004;28;20235;-70
2023/12/23 01:43:50;;;;;;;1.77;0.68;;;;;;;;;;5046097;28;20208;-70
2023/12/23 01:46:17;;;;;;;2.22;0.40;;;;;;;;;;5046231;28;20225;-70
2023/12/23 01:48:45;;;;;;;1.05;0.50;;;;;;;;;;5045982;28;20670;-70
2023/12/23 01:51:13;;;;;;;0.95;0.40;;;;;;;;;;5046102;28;20751;-70
2023/12/23 01:53:39;;;;;;;0.88;0.47;;;;;;;;;;5045855;28;20213;-70
2023/12/23 01:56:05;;;;;;;2.42;0.50;;;;;;;;;;5045908;28;20236;-70
2023/12/23 01:58:32;;;;;;;2.63;0.60;;;;;;;;;;5046007;28;20464;-70
2023/12/23 02:00:58;;;;;;;1.75;0.80;;;;;;;;;;5045929;28;20220;-70
2023/12/23 02:03:26;;;;;;;1.40;0.80;;;;;;;;;;5045346;28;20213;-70
2023/12/23 02:05:52;;;;;;;2.83;1.10;;;;;;;;;;5045906;28;20318;-70
2023/12/23 02:08:18;;;;;;;5.90;1.38;;;;;;;;;;5046073;28;20209;-70
2023/12/23 02:10:46;;;;;;;2.53;0.80;;;;;;;;;;5045783;28;20625;-70
2023/12/23 02:13:17;;;;;;;2.20;0.70;;;;;;;;;;5045717;28;20815;-70
2023/12/23 02:15:44;;;;;;;3.20;0.93;;;;;;;;;;5045646;28;20232;-70
2023/12/23 02:18:10;;;;;;;1.65;0.90;;;;;;;;;;5045716;28;20753;-70
2023/12/23 02:20:37;;;;;;;3.20;1.38;;;;;;;;;;5045334;28;20236;-70
2023/12/23 02:23:05;;;;;;;0.98;0.77;;;;;;;;;;5045665;28;20313;-70
2023/12/23 02:25:31;;;;;;;5.75;1.00;;;;;;;;;;5045558;28;20287;-70
2023/12/23 02:28:00;;;;;;;3.53;1.38;;;;;;;;;;5045564;28;20216;-70
2023/12/23 02:30:27;;;;;;;3.92;1.13;;;;;;;;;;5045410;28;20221;-70
2023/12/23 02:32:53;;;;;;;1.88;1.00;;;;;;;;;;5046105;28;20209;-70
2023/12/23 02:35:23;;;;;;;5.38;1.08;;;;;;;;;;5046137;28;20733;-70
2023/12/23 02:37:49;;;;;;;2.10;0.93;;;;;;;;;;5047156;28;20686;-70
2023/12/23 02:40:17;;;;;;;2.58;0.95;;;;;;;;;;5045143;28;20689;-70
2023/12/23 02:42:43;;;;;;;3.17;0.93;;;;;;;;;;5045162;28;20598;-70
2023/12/23 02:45:09;;;;;;;1.60;0.95;;;;;;;;;;5045122;28;20612;-70
2023/12/23 02:47:35;;;;;;;1.95;0.90;;;;;;;;;;5045315;28;20267;-70
2023/12/23 02:50:02;;;;;;;2.20;1.17;;;;;;;;;;5045379;28;20209;-70
2023/12/23 02:52:28;;;;;;;2.03;0.75;;;;;;;;;;5045252;28;20212;-70
2023/12/23 02:54:54;;;;;;;2.00;0.80;;;;;;;;;;5045000;28;20232;-70
2023/12/23 02:57:22;;;;;;;0.93;0.50;;;;;;;;;;5045259;28;20594;-70
2023/12/23 02:59:48;;;;;;;2.15;0.73;;;;;;;;;;5044857;28;20299;-70
2023/12/23 03:02:14;;;;;;;2.70;1.00;;;;;;;;;;5045193;28;20229;-70
2023/12/23 03:04:41;;;;;;;3.60;1.00;;;;;;;;;;5044780;28;20216;-70
2023/12/23 03:07:08;;;;;;;3.30;0.60;;;;;;;;;;5045134;28;20209;-70
2023/12/23 03:09:35;;;;;;;3.47;0.70;;;;;;;;;;5044862;28;20213;-70
2023/12/23 03:12:01;;;;;;;2.60;0.73;;;;;;;;;;5044935;28;20221;-70
2023/12/23 03:14:29;;;;;;;2.28;0.70;;;;;;;;;;5045836;28;20221;-71
2023/12/23 03:16:55;;;;;;;1.33;0.60;;;;;;;;;;5049947;28;20225;-71
2023/12/23 03:19:21;;;;;;;2.20;0.70;;;;;;;;;;5049155;28;20656;-70
2023/12/23 03:21:48;;;;;;;1.83;0.60;;;;;;;;;;5048937;28;20227;-70
2023/12/23 03:24:14;;;;;;;2.95;0.80;;;;;;;;;;5049039;28;20303;-70
2023/12/23 03:26:40;;;;;;;2.13;0.70;;;;;;;;;;5048765;28;20236;-70
2023/12/23 03:29:07;;;;;;;1.77;1.00;;;;;;;;;;5048903;28;20209;-70
2023/12/23 03:31:34;;;;;;;2.90;0.82;;;;;;;;;;5048662;28;20630;-70
2023/12/23 03:34:01;;;;;;;3.50;0.85;;;;;;;;;;5048860;28;20232;-70
2023/12/23 03:36:27;;;;;;;3.08;1.00;;;;;;;;;;5048774;28;20233;-70
2023/12/23 03:38:53;;;;;;;3.40;1.02;;;;;;;;;;5050709;28;20243;-70
2023/12/23 03:41:19;;;;;;;1.33;0.70;;;;;;;;;;5048036;28;20225;-70
2023/12/23 03:43:46;;;;;;;3.42;0.90;;;;;;;;;;5048347;28;20222;-70
2023/12/23 03:46:12;;;;;;;4.25;0.95;;;;;;;;;;5048477;28;20282;-70
2023/12/23 03:48:40;;;;;;;2.97;0.93;;;;;;;;;;5048245;28;20685;-70
2023/12/23 03:51:07;;;;;;;3.85;0.90;;;;;;;;;;5048552;28;20209;-70
2023/12/23 03:53:33;;;;;;;2.65;0.80;;;;;;;;;;5048001;28;20267;-70
2023/12/23 03:56:00;;;;;;;1.17;0.73;;;;;;;;;;5048174;28;20225;-70
2023/12/23 03:58:26;;;;;;;2.30;0.80;;;;;;;;;;5048391;28;20209;-70
2023/12/23 04:00:52;;;;;;;1.38;0.60;;;;;;;;;;5048151;28;20225;-70
2023/12/23 04:03:18;;;;;;;2.63;0.80;;;;;;;;;;5048195;28;20229;-70
2023/12/23 04:05:46;;;;;;;1.98;0.80;;;;;;;;;;5048372;28;20282;-70
2023/12/23 04:08:12;;;;;;;1.80;0.80;;;;;;;;;;5049313;28;20221;-70
2023/12/23 04:10:38;;;;;;;0.60;0.60;;;;;;;;;;5048989;28;20209;-70
2023/12/23 04:13:05;;;;;;;3.08;0.70;;;;;;;;;;5047935;28;20210;-70
2023/12/23 04:15:31;;;;;;;1.75;0.80;;;;;;;;;;5047968;28;20541;-70
2023/12/23 04:17:57;;;;;;;1.17;0.70;;;;;;;;;;5048004;28;20213;-70
2023/12/23 04:20:23;;;;;;;2.92;1.23;;;;;;;;;;5047716;28;20267;-70
2023/12/23 04:22:51;;;;;;;3.85;0.82;;;;;;;;;;5047244;28;20225;-70
2023/12/23 04:25:17;;;;;;;2.55;0.80;;;;;;;;;;5047373;28;20237;-70
2023/12/23 04:27:43;;;;;;;2.58;0.80;;;;;;;;;;5046844;28;20717;-70
2023/12/23 04:30:11;;;;;;;1.50;0.80;;;;;;;;;;5047534;28;20243;-70
2023/12/23 04:32:37;;;;;;;0.77;0.75;;;;;;;;;;5047683;28;20690;-70
2023/12/23 04:35:04;;;;;;;0.70;0.70;;;;;;;;;;5047618;28;20225;-70
2023/12/23 04:37:30;;;;;;;4.40;0.77;;;;;;;;;;5049459;28;20300;-70
2023/12/23 04:39:58;;;;;;;1.05;0.50;;;;;;;;;;5047556;28;20224;-70
2023/12/23 04:42:24;;;;;;;2.03;0.68;;;;;;;;;;5047732;28;20282;-70
2023/12/23 04:44:50;;;;;;;1.58;0.68;;;;;;;;;;5047152;28;20217;-70
2023/12/23 04:47:16;;;;;;;1.10;0.95;;;;;;;;;;5047812;28;20217;-70
2023/12/23 04:49:42;;;;;;;2.00;0.63;;;;;;;;;;5047430;28;20217;-70
2023/12/23 04:52:09;;;;;;;3.60;0.70;;;;;;;;;;5047273;28;20201;-70
2023/12/23 04:54:35;;;;;;;2.38;0.60;;;;;;;;;;5047110;28;20259;-70
2023/12/23 04:57:02;;;;;;;1.73;0.65;;;;;;;;;;5047079;28;20217;-72
2023/12/23 04:59:29;;;;;;;1.60;0.65;;;;;;;;;;5047234;28;20217;-70
2023/12/23 05:01:55;;;;;;;1.30;0.63;;;;;;;;;;5047225;28;20266;-70
2023/12/23 05:04:21;;;;;;;2.80;0.90;;;;;;;;;;5047185;28;20904;-70
2023/12/23 05:06:48;;;;;;;2.72;0.70;;;;;;;;;;5046993;28;20319;-70
2023/12/23 05:09:14;;;;;;;0.38;0.38;;;;;;;;;;5047022;28;20258;-70
2023/12/23 05:11:40;;;;;;;2.92;0.70;;;;;;;;;;5046740;28;20609;-70
2023/12/23 05:14:08;;;;;;;0.40;0.40;;;;;;;;;;5046633;28;20233;-70
2023/12/23 05:16:34;;;;;;;3.70;0.65;;;;;;;;;;5047009;28;20228;-70
2023/12/23 05:19:01;;;;;;;2.78;0.57;;;;;;;;;;5047067;28;20343;-70
2023/12/23 05:21:27;;;;;;;1.08;0.80;;;;;;;;;;5047043;28;20224;-70
2023/12/23 05:23:53;;;;;;;3.05;0.93;;;;;;;;;;5046669;28;20209;-70
2023/12/23 05:26:20;;;;;;;1.38;0.40;;;;;;;;;;5047639;28;20248;-70
2023/12/23 05:28:46;;;;;;;0.38;0.38;;;;;;;;;;5046922;28;20561;-70
2023/12/23 05:31:13;;;;;;;1.00;0.40;;;;;;;;;;5046765;28;20217;-70
2023/12/23 05:33:40;;;;;;;2.63;0.40;;;;;;;;;;5046631;28;20296;-70
2023/12/23 05:36:07;;;;;;;1.55;0.40;;;;;;;;;;5038733;28;20247;-70
2023/12/23 05:38:33;;;;;;;0.98;0.60;;;;;;;;;;5049711;28;20291;-70
2023/12/23 05:41:00;;;;;;;1.17;0.47;;;;;;;;;;5046027;28;20730;-70
2023/12/23 05:43:27;;;;;;;1.30;0.40;;;;;;;;;;5046342;28;20642;-70
2023/12/23 05:45:53;;;;;;;0.47;0.30;;;;;;;;;;5045934;28;20299;-70
2023/12/23 05:48:20;;;;;;;1.00;0.30;;;;;;;;;;5046444;28;20638;-70
2023/12/23 05:50:47;;;;;;;0.75;0.30;;;;;;;;;;5046033;28;20239;-70
2023/12/23 05:53:13;;;;;;;0.63;0.30;;;;;;;;;;5046204;28;20217;-70
2023/12/23 05:55:39;;;;;;;0.20;0.20;;;;;;;;;;5046193;28;20233;-70
2023/12/23 05:58:05;;;;;;;0.20;0.20;;;;;;;;;;5046045;28;20542;-70
2023/12/23 06:00:32;;;;;;;0.40;0.40;;;;;;;;;;5046132;28;20213;-70
2023/12/23 06:02:58;;;;;;;0.40;0.40;;;;;;;;;;5045417;28;20221;-70
2023/12/23 06:05:25;;;;;;;1.17;0.30;;;;;;;;;;5045716;28;20228;-70
2023/12/23 06:07:52;;;;;;;3.95;0.40;;;;;;;;;;5046035;28;20213;-70
2023/12/23 06:10:18;;;;;;;0.40;0.30;;;;;;;;;;5045804;28;20496;-70
2023/12/23 06:12:44;;;;;;;0.88;0.35;;;;;;;;;;5045629;28;20213;-70
2023/12/23 06:15:11;;;;;;;0.20;0.20;;;;;;;;;;5045545;28;20728;-70
2023/12/23 06:17:37;;;;;;;0.30;0.10;;;;;;;;;;5046046;28;20594;-70
2023/12/23 06:20:04;;;;;;;0.80;0.20;;;;;;;;;;5045330;28;20238;-70
2023/12/23 06:22:31;;;;;;;0.20;0.20;;;;;;;;;;5046013;28;20225;-70
2023/12/23 06:24:58;;;;;;;0.20;0.20;;;;;;;;;;5045692;28;20236;-70
2023/12/23 06:27:24;;;;;;;0.20;0.20;;;;;;;;;;5046176;28;20242;-70
2023/12/23 06:29:50;;;;;;;0.25;0.22;;;;;;;;;;5045522;28;20262;-70
2023/12/23 06:32:16;;;;;;;0.65;0.40;;;;;;;;;;5046019;28;20221;-70
2023/12/23 06:34:43;;;;;;;0.20;0.20;;;;;;;;;;5045246;28;20220;-71
2023/12/23 06:37:09;;;;;;;0.25;0.20;;;;;;;;;;5045025;28;20296;-71
2023/12/23 06:39:37;;;;;;;0.40;0.40;;;;;;;;;;5045705;28;20213;-71
2023/12/23 06:42:03;;;;;;;0.10;0.10;;;;;;;;;;5042203;28;20224;-71
2023/12/23 06:44:29;;;;;;;1.88;1.65;;;;;;;;;;5044476;28;20216;-71
2023/12/23 06:46:56;;;;;;;0.47;0.47;;;;;;;;;;5043673;28;20310;-71
2023/12/23 06:49:24;;;;;;;0.10;0.10;;;;;;;;;;5044381;28;20262;-71
2023/12/23 06:51:50;;;;;;;0.75;0.20;;;;;;;;;;5047581;28;20240;-71
2023/12/23 06:54:16;;;;;;;0.50;0.20;;;;;;;;;;5047626;28;20227;-65
2023/12/23 06:56:44;;;;;;;0.20;0.20;;;;;;;;;;5047749;28;20705;-65
2023/12/23 06:59:12;;;;;;;6.32;0.60;;;;;;;;;;5047646;28;20764;-64
2023/12/23 07:01:39;;;;;;;5.25;0.40;;;;;;;;;;5049759;28;20310;-64
2023/12/23 07:04:06;;;;;;;0.38;0.38;;;;;;;;;;5049424;28;20224;-64
2023/12/23 07:06:33;;;;;;;0.43;0.25;;;;;;;;;;5049459;28;20236;-64
2023/12/23 07:08:59;;;;;;;1.02;0.25;;;;;;;;;;5049374;28;20209;-64
2023/12/23 07:11:25;;;;;;;1.20;0.10;;;;;;;;;;5049168;28;20209;-64
2023/12/23 07:13:53;;;;;;;0.10;0.10;;;;;;;;;;5048732;28;20204;-64
2023/12/23 07:16:19;;;;;;;0.35;0.20;;;;;;;;;;5049388;28;20697;-64
2023/12/23 07:18:45;;;;;;;0.20;0.20;;;;;;;;;;5049461;28;20514;-64
2023/12/23 07:21:12;;;;;;;0.75;0.20;;;;;;;;;;5049238;28;20205;-64
2023/12/23 07:23:38;;;;;;;0.20;0.20;;;;;;;;;;5049932;28;20221;-64
2023/12/23 07:26:05;;;;;;;0.20;0.20;;;;;;;;;;5050005;28;20666;-64
2023/12/23 07:28:32;;;;;;;0.75;0.20;;;;;;;;;;5050110;28;20216;-64
2023/12/23 07:30:59;;;;;;;0.20;0.20;;;;;;;;;;5049776;28;20212;-64
2023/12/23 07:33:25;;;;;;;0.22;0.22;;;;;;;;;;5049706;28;20255;-64
2023/12/23 07:35:52;;;;;;;0.70;0.30;;;;;;;;;;5049625;28;20229;-64
2023/12/23 07:38:18;;;;;;;0.47;0.47;;;;;;;;;;5041079;28;20263;-65
2023/12/23 07:40:44;;;;;;;0.30;0.30;;;;;;;;;;5048069;28;20267;-65
2023/12/23 07:43:11;;;;;;;0.40;0.40;;;;;;;;;;5048556;28;20213;-64
2023/12/23 07:45:37;;;;;;;0.30;0.30;;;;;;;;;;5048528;28;20252;-64
2023/12/23 07:48:05;;;;;;;0.50;0.30;;;;;;;;;;5048415;28;20566;-65
2023/12/23 07:50:31;;;;;;;0.22;0.22;;;;;;;;;;5048398;28;20509;-65
2023/12/23 07:52:58;;;;;;;0.20;0.20;;;;;;;;;;5048592;28;20208;-65
2023/12/23 07:55:24;;;;;;;0.30;0.20;;;;;;;;;;5048089;28;20227;-64
2023/12/23 07:57:50;;;;;;;0.20;0.20;;;;;;;;;;5048184;28;20308;-65
2023/12/23 08:00:17;;;;;;;0.20;0.20;;;;;;;;;;5047919;28;20746;-65
2023/12/23 08:02:44;;;;;;;0.20;0.20;;;;;;;;;;5048330;28;20225;-65
2023/12/23 08:05:11;;;;;;;1.33;0.30;;;;;;;;;;5047873;28;20231;-65
2023/12/23 08:07:39;;;;;;;0.20;0.20;;;;;;;;;;5048315;28;20209;-65
2023/12/23 08:10:06;;;;;;;0.40;0.22;;;;;;;;;;5047956;28;20216;-65
2023/12/23 08:12:32;;;;;;;0.40;0.40;;;;;;;;;;5048020;28;20262;-65
2023/12/23 08:14:58;;;;;;;0.68;0.68;;;;;;;;;;5047734;28;20225;-65
2023/12/23 08:17:24;;;;;;;0.52;0.45;;;;;;;;;;5048206;28;20201;-65
2023/12/23 08:19:51;;;;;;;0.20;0.20;;;;;;;;;;5047963;28;20618;-65
2023/12/23 08:22:18;;;;;;;0.30;0.30;;;;;;;;;;5048015;28;20574;-65
2023/12/23 08:24:44;;;;;;;0.40;0.40;;;;;;;;;;5047815;28;20639;-65
2023/12/23 08:27:11;;;;;;;0.20;0.20;;;;;;;;;;5047812;28;20585;-65
2023/12/23 08:29:37;;;;;;;1.23;1.05;;;;;;;;;;5047651;28;20205;-64
2023/12/23 08:32:03;;;;;;;0.40;0.40;;;;;;;;;;5047858;28;20205;-64
2023/12/23 08:34:30;;;;;;;0.38;0.38;;;;;;;;;;5047623;28;20288;-65
2023/12/23 08:36:56;;;;;;;0.20;0.20;;;;;;;;;;5047893;28;20205;-65
2023/12/23 08:39:24;;;;;;;0.98;0.30;;;;;;;;;;5047520;28;20274;-65
2023/12/23 08:41:50;;;;;;;0.47;0.20;;;;;;;;;;5047661;28;20239;-65
2023/12/23 08:44:17;;;;;;;0.40;0.40;;;;;;;;;;5047409;28;20760;-65
2023/12/23 08:46:43;;;;;;;0.25;0.25;;;;;;;;;;5047252;28;20728;-64
2023/12/23 08:49:10;;;;;;;0.20;0.20;;;;;;;;;;5047353;28;20212;-65
2023/12/23 08:51:38;;;;;;;0.30;0.30;;;;;;;;;;5047282;28;20205;-65
2023/12/23 08:54:04;;;;;;;0.28;0.28;;;;;;;;;;5047113;28;20205;-65
2023/12/23 08:56:32;;;;;;;1.00;0.40;;;;;;;;;;5047445;28;20607;-65
2023/12/23 08:58:58;;;;;;;0.63;0.20;;;;;;;;;;5047814;28;20500;-65
2023/12/23 09:01:24;;;;;;;0.50;0.30;;;;;;;;;;5046730;28;20232;-65
2023/12/23 09:03:50;;;;;;;2.28;0.20;;;;;;;;;;5046730;28;20217;-65
2023/12/23 09:06:17;;;;;;;0.20;0.20;;;;;;;;;;5046872;28;20228;-65
2023/12/23 09:08:44;;;;;;;0.20;0.20;;;;;;;;;;5046819;28;20233;-65
2023/12/23 09:11:10;;;;;;;0.70;0.47;;;;;;;;;;5046921;28;20209;-65
2023/12/23 09:13:38;;;;;;;0.20;0.20;;;;;;;;;;5046389;28;20201;-64
2023/12/23 09:16:05;;;;;;;0.20;0.20;;;;;;;;;;5047268;28;20227;-64
2023/12/23 09:18:46;;;;;;;0.20;0.20;;;;;;;;;;5047451;28;20213;-65
2023/12/23 09:21:13;;;;;;;0.20;0.20;;;;;;;;;;5046825;28;20641;-64
2023/12/23 09:23:39;;;;;;;0.20;0.20;;;;;;;;;;5045212;28;20225;-65
2023/12/23 09:26:05;;;;;;;0.80;0.43;;;;;;;;;;5046725;28;20225;-65
2023/12/23 09:28:31;;;;;;;0.30;0.20;;;;;;;;;;5047005;28;20212;-65
2023/12/23 09:30:59;;;;;;;0.70;0.10;;;;;;;;;;5047083;28;20266;-65
2023/12/23 09:33:25;;;;;;;0.40;0.22;;;;;;;;;;5045889;28;20196;-66
2023/12/23 09:35:53;;;;;;;0.38;0.20;;;;;;;;;;5045367;28;20232;-65
2023/12/23 09:38:19;;;;;;;0.38;0.20;;;;;;;;;;5046626;28;20212;-66
2023/12/23 09:40:46;;;;;;;0.22;0.20;;;;;;;;;;5046708;28;20209;-65
2023/12/23 09:43:13;;;;;;;0.17;0.17;;;;;;;;;;5046948;28;20245;-65
2023/12/23 09:45:40;;;;;;;0.20;0.20;;;;;;;;;;5046311;28;20232;-62
2023/12/23 09:48:08;;;;;;;0.13;0.13;;;;;;;;;;5044360;28;20255;-65
2023/12/23 09:50:34;;;;;;;0.20;0.20;;;;;;;;;;5044354;28;20208;-64
2023/12/23 09:53:01;;;;;;;0.20;0.20;;;;;;;;;;5044193;28;20410;-65
2023/12/23 09:55:27;;;;;;;0.35;0.35;;;;;;;;;;5043860;28;20308;-64
2023/12/23 09:57:53;;;;;;;0.25;0.25;;;;;;;;;;5043944;28;20220;-62
2023/12/23 10:00:19;;;;;;;0.20;0.20;;;;;;;;;;5043554;28;20286;-64
2023/12/23 10:02:46;;;;;;;0.20;0.20;;;;;;;;;;5045511;28;20224;-64
2023/12/23 10:05:13;;;;;;;0.88;0.30;;;;;;;;;;5045866;28;20278;-65
2023/12/23 10:07:40;;;;;;;0.20;0.20;;;;;;;;;;5046207;28;20292;-65
2023/12/23 10:10:07;;;;;;;0.20;0.20;;;;;;;;;;5045920;28;20216;-65
2023/12/23 10:12:33;;;;;;;0.40;0.20;;;;;;;;;;5037900;28;20208;-66
2023/12/23 10:15:00;;;;;;;0.63;0.25;;;;;;;;;;5045251;28;20626;-66
2023/12/23 10:17:26;;;;;;;0.82;0.20;;;;;;;;;;5045757;28;20213;-66
2023/12/23 10:19:55;;;;;;;0.13;0.13;;;;;;;;;;5045812;28;20279;-66
2023/12/23 10:22:24;;;;;;;0.13;0.13;;;;;;;;;;5045751;28;20596;-65
2023/12/23 10:24:50;;;;;;;1.15;0.10;;;;;;;;;;5045269;28;20736;-65
2023/12/23 10:27:16;;;;;;;0.22;0.22;;;;;;;;;;5045403;28;20709;-65
2023/12/23 10:29:44;;;;;;;0.65;0.20;;;;;;;;;;5045251;28;20745;-65
2023/12/23 10:32:12;;;;;;;0.20;0.20;;;;;;;;;;5045890;28;20205;-65
2023/12/23 10:34:43;;;;;;;0.20;0.20;;;;;;;;;;5045482;28;20629;-66
2023/12/23 10:37:09;;;;;;;0.20;0.20;;;;;;;;;;5045978;28;20227;-65
2023/12/23 10:39:41;;;;;;;0.52;0.30;;;;;;;;;;5044950;28;20209;-65
2023/12/23 10:42:09;;;;;;;0.20;0.20;;;;;;;;;;5045211;28;20201;-65
2023/12/23 10:44:36;;;;;;;0.55;0.20;;;;;;;;;;5037097;28;20728;-65
2023/12/23 10:47:03;;;;;;;0.43;0.40;;;;;;;;;;5045616;28;20749;-65
2023/12/23 10:49:29;;;;;;;0.10;0.10;;;;;;;;;;5045400;28;20663;-65
2023/12/23 10:51:56;;;;;;;0.20;0.20;;;;;;;;;;5045393;28;20291;-65
2023/12/23 10:54:24;;;;;;;0.45;0.20;;;;;;;;;;5045109;28;20209;-65
2023/12/23 10:56:53;;;;;;;0.10;0.10;;;;;;;;;;5045177;28;20221;-65
2023/12/23 10:59:19;;;;;;;0.68;0.30;;;;;;;;;;5045244;28;20676;-65
2023/12/23 11:01:46;;;;;;;0.20;0.20;;;;;;;;;;5045534;28;20258;-65
2023/12/23 11:04:12;;;;;;;0.20;0.20;;;;;;;;;;5045468;28;20221;-65
2023/12/23 11:06:40;;;;;;;0.30;0.22;;;;;;;;;;5045780;28;20255;-65
2023/12/23 11:09:07;;;;;;;0.15;0.15;;;;;;;;;;5045135;28;20581;-65
2023/12/23 11:11:34;;;;;;;0.20;0.20;;;;;;;;;;5045478;28;20296;-65
2023/12/23 11:14:04;;;;;;;0.75;0.20;;;;;;;;;;5045262;28;20208;-65
2023/12/23 11:16:30;;;;;;;2.13;0.20;;;;;;;;;;5045290;28;20279;-66
2023/12/23 11:18:57;;;;;;;0.30;0.30;;;;;;;;;;5045350;28;20724;-66
2023/12/23 11:21:23;;;;;;;0.10;0.10;;;;;;;;;;5045018;28;20294;-66
2023/12/23 11:23:52;;;;;;;0.20;0.20;;;;;;;;;;5044748;28;20635;-66
2023/12/23 11:26:40;;;;;;;0.38;0.38;;;;;;;;;;5045391;28;20229;-65
2023/12/23 11:29:08;;;;;;;2.00;1.90;;;;;;;;;;5045835;28;20209;-65
2023/12/23 11:31:35;;;;;;;2.25;1.10;;;;;;;;;;5045714;28;20610;-66
2023/12/23 11:34:02;;;;;;;1.00;1.00;;;;;;;;;;5045304;28;20200;-66
2023/12/23 11:36:28;;;;;;;1.27;0.40;;;;;;;;;;5047425;28;20225;-66
2023/12/23 11:38:54;;;;;;;0.40;0.40;;;;;;;;;;5049162;28;20236;-65
2023/12/23 11:41:21;;;;;;;0.22;0.22;;;;;;;;;;5048619;28;20239;-66
2023/12/23 11:43:49;;;;;;;0.30;0.30;;;;;;;;;;5048706;28;20727;-65
2023/12/23 11:46:17;;;;;;;0.30;0.30;;;;;;;;;;5048695;28;20880;-66
2023/12/23 11:48:44;;;;;;;0.20;0.20;;;;;;;;;;5041268;28;20290;-65
2023/12/23 11:51:10;;;;;;;1.45;0.38;;;;;;;;;;5049201;28;20201;-65
2023/12/23 11:53:37;;;;;;;0.30;0.30;;;;;;;;;;5048940;28;20209;-65
2023/12/23 11:56:05;;;;;;;0.50;0.50;;;;;;;;;;5048597;28;20220;-66
2023/12/23 11:58:31;;;;;;;19.70;10.00;;;;;;;;;;5048843;28;20201;-65
2023/12/23 12:00:59;;;;;;;0.43;0.43;;;;;;;;;;5048470;28;20674;-65
2023/12/23 12:03:27;;;;;;;0.50;0.30;;;;;;;;;;5048223;28;20731;-65
2023/12/23 12:05:55;;;;;;;0.30;0.28;;;;;;;;;;5048341;28;20593;-65
2023/12/23 12:08:21;;;;;;;0.30;0.30;;;;;;;;;;5048256;28;20689;-65
2023/12/23 12:10:48;;;;;;;0.20;0.20;;;;;;;;;;5047937;28;20207;-65
2023/12/23 12:13:14;;;;;;;0.45;0.20;;;;;;;;;;5048195;28;20213;-65
2023/12/23 12:15:41;;;;;;;0.52;0.52;;;;;;;;;;5048141;28;20221;-65
2023/12/23 12:18:07;;;;;;;0.60;0.60;;;;;;;;;;5048239;28;20725;-66
2023/12/23 12:20:35;;;;;;;0.30;0.30;;;;;;;;;;5048316;28;20296;-65
2023/12/23 12:23:02;;;;;;;0.45;0.40;;;;;;;;;;5048287;28;20588;-66
2023/12/23 12:25:29;;;;;;;1.38;0.30;;;;;;;;;;5047721;28;20581;-65
2023/12/23 12:27:55;;;;;;;0.40;0.40;;;;;;;;;;5048069;28;20236;-66
2023/12/23 12:30:22;;;;;;;1.08;0.30;;;;;;;;;;5047657;28;20297;-65
2023/12/23 12:32:49;;;;;;;0.47;0.30;;;;;;;;;;5048032;28;20224;-65
2023/12/23 12:35:16;;;;;;;0.60;0.60;;;;;;;;;;5048124;28;20256;-65
2023/12/23 12:37:44;;;;;;;0.40;0.40;;;;;;;;;;5048026;28;20673;-65
2023/12/23 12:40:11;;;;;;;0.50;0.50;;;;;;;;;;5047694;28;20267;-66
2023/12/23 12:42:37;;;;;;;0.52;0.30;;;;;;;;;;5047937;28;20677;-66
2023/12/23 12:45:05;;;;;;;0.30;0.30;;;;;;;;;;5047582;28;20367;-66
2023/12/23 12:47:31;;;;;;;0.20;0.20;;;;;;;;;;5046698;28;20291;-65
2023/12/23 12:49:59;;;;;;;1.58;0.30;;;;;;;;;;5048014;28;20209;-65
2023/12/23 12:52:26;;;;;;;0.22;0.22;;;;;;;;;;5048342;28;20685;-65
2023/12/23 12:54:53;;;;;;;0.10;0.10;;;;;;;;;;5047764;28;20217;-65
2023/12/23 12:57:20;;;;;;;0.40;0.20;;;;;;;;;;5047886;28;20622;-65
2023/12/23 12:59:46;;;;;;;0.20;0.20;;;;;;;;;;5047826;28;20434;-65
2023/12/23 13:02:15;;;;;;;0.10;0.10;;;;;;;;;;5047518;28;20263;-65
2023/12/23 13:04:41;;;;;;;0.30;0.30;;;;;;;;;;5047263;28;20244;-65
2023/12/23 13:07:07;;;;;;;0.22;0.22;;;;;;;;;;5047294;28;20201;-65
2023/12/23 13:09:34;;;;;;;0.20;0.20;;;;;;;;;;5047376;28;20308;-65
2023/12/23 13:12:01;;;;;;;1.17;0.30;;;;;;;;;;5046902;28;20647;-65
2023/12/23 13:14:29;;;;;;;0.30;0.30;;;;;;;;;;5046881;28;20212;-65
2023/12/23 13:16:55;;;;;;;0.32;0.32;;;;;;;;;;5046985;28;20709;-65
2023/12/23 13:19:21;;;;;;;0.30;0.30;;;;;;;;;;5047078;28;20213;-65
2023/12/23 13:21:47;;;;;;;1.33;0.35;;;;;;;;;;5047088;28;20291;-65
2023/12/23 13:24:15;;;;;;;0.28;0.28;;;;;;;;;;5047333;28;20220;-65
2023/12/23 13:26:41;;;;;;;0.30;0.30;;;;;;;;;;5047116;28;20696;-65
2023/12/23 13:29:09;;;;;;;1.23;0.20;;;;;;;;;;5049051;28;20743;-65
2023/12/23 13:31:36;;;;;;;0.20;0.20;;;;;;;;;;5051323;28;20242;-65
2023/12/23 13:34:02;;;;;;;0.20;0.20;;;;;;;;;;5052119;28;20211;-65
2023/12/23 13:36:29;;;;;;;0.20;0.20;;;;;;;;;;5053856;28;20247;-65
2023/12/23 13:38:55;;;;;;;0.40;0.40;;;;;;;;;;5048774;28;20232;-65
2023/12/23 13:41:25;;;;;;;0.95;0.70;;;;;;;;;;5047427;28;20278;-65
2023/12/23 13:43:51;;;;;;;0.28;0.28;;;;;;;;;;5047812;28;20205;-65
2023/12/23 13:46:19;;;;;;;0.20;0.20;;;;;;;;;;5046842;28;20286;-65
2023/12/23 13:48:45;;;;;;;0.20;0.20;;;;;;;;;;5046571;28;20213;-65
2023/12/23 13:51:12;;;;;;;1.23;0.90;;;;;;;;;;5046661;28;20504;-65
2023/12/23 13:53:38;;;;;;;0.28;0.28;;;;;;;;;;5046163;28;20227;-65
2023/12/23 13:56:08;;;;;;;0.35;0.35;;;;;;;;;;5046251;28;20221;-65
2023/12/23 13:58:34;;;;;;;0.25;0.25;;;;;;;;;;5046244;28;20213;-65
2023/12/23 14:01:01;;;;;;;0.52;0.40;;;;;;;;;;5046396;28;20668;-65
2023/12/23 14:03:28;;;;;;;11.48;5.03;;;;;;;;;;5046481;28;20205;-65
2023/12/23 14:05:56;;;;;;;1.73;1.20;;;;;;;;;;5038029;28;20224;-65
2023/12/23 14:08:22;;;;;;;0.32;0.32;;;;;;;;;;5046132;28;21076;-65
2023/12/23 14:10:48;;;;;;;0.40;0.40;;;;;;;;;;5045859;28;20607;-65
2023/12/23 14:13:15;;;;;;;0.30;0.30;;;;;;;;;;5045721;28;20209;-65
2023/12/23 14:15:41;;;;;;;0.45;0.45;;;;;;;;;;5045824;28;20291;-65
2023/12/23 14:18:08;;;;;;;0.50;0.50;;;;;;;;;;5046155;28;20208;-65
2023/12/23 14:20:36;;;;;;;0.55;0.50;;;;;;;;;;5046044;28;20296;-65
2023/12/23 14:23:03;;;;;;;0.40;0.40;;;;;;;;;;5046065;28;20213;-65
2023/12/23 14:25:29;;;;;;;0.40;0.40;;;;;;;;;;5045769;28;20604;-65
2023/12/23 14:27:56;;;;;;;0.30;0.30;;;;;;;;;;5045657;28;20619;-65
2023/12/23 14:30:22;;;;;;;0.30;0.30;;;;;;;;;;5045706;28;20263;-65
2023/12/23 14:32:48;;;;;;;1.30;0.30;;;;;;;;;;5046085;28;20209;-65
2023/12/23 14:35:14;;;;;;;0.28;0.28;;;;;;;;;;5045750;28;20274;-65
2023/12/23 14:37:42;;;;;;;1.17;0.20;;;;;;;;;;5045812;28;20209;-65
2023/12/23 14:40:09;;;;;;;0.55;0.30;;;;;;;;;;5045593;28;20213;-65